Time;durP1;ratioP1;P1;durP2;ratioP2;P2;SDS_P1;SDS_P2;PMS_P1;PMS_P2;Temp;Humidity;BMP_temperature;BMP_pressure;BME280_temperature;BME280_humidity;BME280_pressure;Samples;Min_cycle;Max_cycle;Signal;HPM_P1;HPM_P2
2024/01/24 00:02:19;;;;;;;37.65;16.20;;;-0.10;99.90;;;;;;5082697;28;20379;-69
2024/01/24 00:04:45;;;;;;;28.35;13.00;;;-0.30;99.90;;;;;;5082912;28;20058;-69
2024/01/24 00:07:11;;;;;;;26.58;10.77;;;-0.30;99.90;;;;;;5082802;28;20135;-70
2024/01/24 00:09:36;;;;;;;33.95;14.68;;;-0.30;99.90;;;;;;5082486;28;20019;-69
2024/01/24 00:12:02;;;;;;;41.70;17.05;;;-0.20;99.90;;;;;;5082502;28;20020;-69
2024/01/24 00:14:28;;;;;;;38.30;14.13;;;;;;;;;;5062705;28;20071;-69
2024/01/24 00:16:54;;;;;;;29.70;11.43;;;;;;;;;;5062353;28;20328;-70
2024/01/24 00:19:20;;;;;;;24.58;10.88;;;-0.30;99.90;;;;;;5080246;28;20271;-69
2024/01/24 00:21:46;;;;;;;27.50;11.70;;;-0.30;99.90;;;;;;5102782;28;20045;-70
2024/01/24 00:24:12;;;;;;;29.15;13.02;;;-0.30;99.90;;;;;;5103122;28;20292;-69
2024/01/24 00:26:38;;;;;;;34.10;12.63;;;-0.40;99.90;;;;;;5102311;28;20023;-69
2024/01/24 00:29:03;;;;;;;30.38;12.07;;;-0.50;99.90;;;;;;5102410;28;20378;-70
2024/01/24 00:31:29;;;;;;;32.22;12.85;;;-0.40;99.90;;;;;;5101752;28;20412;-68
2024/01/24 00:33:55;;;;;;;32.00;13.85;;;;;;;;;;5102117;28;20096;-69
2024/01/24 00:36:24;;;;;;;37.65;15.02;;;-0.30;99.90;;;;;;5092649;28;20248;-68
2024/01/24 00:38:53;;;;;;;41.75;14.98;;;-0.30;99.90;;;;;;5102264;28;20085;-70
2024/01/24 00:41:18;;;;;;;43.50;18.08;;;-0.30;99.90;;;;;;5102234;28;20032;-69
2024/01/24 00:43:44;;;;;;;57.60;23.35;;;;;;;;;;5102873;28;20028;-67
2024/01/24 00:46:10;;;;;;;60.35;21.58;;;-0.50;99.90;;;;;;5100574;28;20047;-67
2024/01/24 00:48:36;;;;;;;53.30;21.85;;;-0.50;99.90;;;;;;5083630;28;20032;-67
2024/01/24 00:51:03;;;;;;;47.45;21.08;;;-0.50;99.90;;;;;;5082064;28;20024;-67
2024/01/24 00:53:29;;;;;;;43.40;18.30;;;-0.70;99.90;;;;;;5095747;28;20031;-67
2024/01/24 00:55:56;;;;;;;45.50;16.95;;;-0.60;99.90;;;;;;5100734;28;20342;-67
2024/01/24 00:58:22;;;;;;;38.25;17.33;;;-0.70;99.90;;;;;;5083618;28;20047;-67
2024/01/24 01:00:48;;;;;;;39.35;15.45;;;-0.70;99.90;;;;;;5082792;28;20047;-65
2024/01/24 01:03:13;;;;;;;42.33;15.23;;;-0.30;99.90;;;;;;5083205;28;20012;-67
2024/01/24 01:05:39;;;;;;;43.88;18.23;;;-0.70;99.90;;;;;;5082901;28;20034;-67
2024/01/24 01:08:05;;;;;;;39.22;14.80;;;-0.70;99.90;;;;;;5081537;28;20031;-66
2024/01/24 01:10:31;;;;;;;36.15;16.67;;;-0.90;99.90;;;;;;5081631;28;20025;-66
2024/01/24 01:12:57;;;;;;;40.40;15.55;;;;;;;;;;5081292;28;20095;-66
2024/01/24 01:15:26;;;;;;;33.05;15.23;;;-0.80;99.90;;;;;;5081460;28;20050;-66
2024/01/24 01:17:52;;;;;;;36.53;15.75;;;;;;;;;;5081458;28;20008;-65
2024/01/24 01:20:21;;;;;;;32.83;15.32;;;;;;;;;;5081558;28;20040;-65
2024/01/24 01:22:47;;;;;;;35.13;14.02;;;-1.10;99.90;;;;;;5081562;28;20271;-66
2024/01/24 01:25:13;;;;;;;33.92;15.00;;;-0.80;99.90;;;;;;5081476;28;20017;-65
2024/01/24 01:27:39;;;;;;;36.63;13.02;;;-0.90;99.90;;;;;;5081617;28;20323;-65
2024/01/24 01:30:06;;;;;;;29.55;12.90;;;;;;;;;;5081407;28;20024;-66
2024/01/24 01:32:31;;;;;;;34.33;13.50;;;-0.90;99.90;;;;;;5081444;28;20159;-65
2024/01/24 01:34:57;;;;;;;39.17;16.83;;;-0.90;99.90;;;;;;5081259;28;20012;-65
2024/01/24 01:37:23;;;;;;;41.95;16.08;;;-0.80;99.90;;;;;;5069785;28;20021;-66
2024/01/24 01:39:52;;;;;;;27.80;12.52;;;-0.80;99.90;;;;;;5061362;28;20088;-66
2024/01/24 01:42:18;;;;;;;41.65;16.08;;;-0.80;99.90;;;;;;5062666;28;20031;-66
2024/01/24 01:44:47;;;;;;;34.30;12.98;;;-0.40;99.90;;;;;;5065222;28;20021;-66
2024/01/24 01:47:16;;;;;;;36.25;14.82;;;-1.00;99.90;;;;;;5065371;28;20017;-66
2024/01/24 01:49:43;;;;;;;40.20;15.77;;;-0.30;99.90;;;;;;5065044;28;20030;-66
2024/01/24 01:52:10;;;;;;;65.07;24.95;;;-1.00;99.90;;;;;;5064931;28;20033;-65
2024/01/24 01:54:40;;;;;;;50.72;22.17;;;-0.90;99.90;;;;;;5064987;28;20296;-66
2024/01/24 01:57:08;;;;;;;79.35;30.13;;;-0.90;99.90;;;;;;5065124;28;20029;-65
2024/01/24 01:59:35;;;;;;;99.20;36.22;;;-1.00;99.90;;;;;;5064852;28;20059;-65
2024/01/24 02:02:01;;;;;;;107.90;34.70;;;-3.20;99.90;;;;;;5064737;28;20614;-66
2024/01/24 02:04:28;;;;;;;104.32;36.03;;;-0.90;99.90;;;;;;5064689;28;20021;-66
2024/01/24 02:06:57;;;;;;;71.57;25.77;;;-0.90;99.90;;;;;;5064646;28;20092;-66
2024/01/24 02:09:23;;;;;;;58.63;23.70;;;-1.20;99.90;;;;;;5064993;28;20047;-66
2024/01/24 02:11:49;;;;;;;60.53;24.48;;;-1.00;99.90;;;;;;5064590;28;20021;-66
2024/01/24 02:14:15;;;;;;;62.08;23.50;;;;;;;;;;5064833;28;20092;-66
2024/01/24 02:16:41;;;;;;;48.97;17.60;;;;;;;;;;5064762;28;20024;-68
2024/01/24 02:19:07;;;;;;;58.65;22.08;;;;;;;;;;5064732;28;20101;-68
2024/01/24 02:21:33;;;;;;;85.13;27.33;;;-0.80;99.90;;;;;;5064303;28;20029;-68
2024/01/24 02:24:00;;;;;;;56.15;23.48;;;-0.90;99.90;;;;;;5064673;28;20017;-68
2024/01/24 02:26:26;;;;;;;71.50;25.95;;;-0.60;99.90;;;;;;5064263;28;20362;-68
2024/01/24 02:28:52;;;;;;;58.92;22.90;;;;;;;;;;5064700;28;20033;-69
2024/01/24 02:31:19;;;;;;;53.53;24.15;;;;;;;;;;5064159;28;20045;-69
2024/01/24 02:33:45;;;;;;;65.65;23.48;;;;;;;;;;5064287;28;20316;-69
2024/01/24 02:36:14;;;;;;;51.03;20.25;;;-0.10;99.90;;;;;;5064152;28;20300;-69
2024/01/24 02:38:40;;;;;;;36.65;14.88;;;-0.20;99.90;;;;;;5064249;28;20013;-69
2024/01/24 02:41:07;;;;;;;43.38;17.67;;;-0.30;99.90;;;;;;5063989;28;20399;-68
2024/01/24 02:43:33;;;;;;;30.13;13.65;;;-0.20;99.90;;;;;;5064310;28;20080;-69
2024/01/24 02:45:59;;;;;;;34.15;12.57;;;-0.10;99.90;;;;;;5063989;28;20377;-69
2024/01/24 02:48:26;;;;;;;32.13;13.18;;;0.20;99.90;;;;;;5064144;28;20017;-70
2024/01/24 02:50:52;;;;;;;34.00;14.32;;;0.00;99.90;;;;;;5064111;28;20070;-70
2024/01/24 02:53:18;;;;;;;26.52;12.63;;;;;;;;;;5085337;28;20020;-69
2024/01/24 02:55:44;;;;;;;27.63;11.63;;;0.60;99.90;;;;;;5104848;28;20054;-69
2024/01/24 02:58:10;;;;;;;24.98;11.80;;;0.20;99.90;;;;;;5104818;28;20048;-69
2024/01/24 03:00:35;;;;;;;19.25;9.32;;;0.20;99.90;;;;;;5104526;28;20086;-69
2024/01/24 03:03:01;;;;;;;25.00;9.50;;;0.30;99.90;;;;;;5104154;28;20200;-69
2024/01/24 03:05:27;;;;;;;25.00;10.30;;;0.30;99.90;;;;;;5104127;28;20024;-69
2024/01/24 03:07:53;;;;;;;25.48;10.68;;;0.40;99.90;;;;;;5103942;28;20028;-69
2024/01/24 03:10:21;;;;;;;24.90;11.07;;;0.50;99.90;;;;;;5104057;28;20256;-70
2024/01/24 03:12:46;;;;;;;25.83;9.60;;;0.60;99.90;;;;;;5103712;28;20031;-69
2024/01/24 03:15:12;;;;;;;18.70;7.63;;;0.50;99.90;;;;;;5103922;28;20020;-69
2024/01/24 03:17:38;;;;;;;21.23;7.95;;;;;;;;;;5103887;28;20040;-68
2024/01/24 03:20:05;;;;;;;14.25;6.45;;;0.90;99.90;;;;;;5103755;28;20351;-68
2024/01/24 03:22:31;;;;;;;18.52;7.57;;;1.10;99.90;;;;;;5105098;28;20020;-68
2024/01/24 03:24:56;;;;;;;18.20;6.53;;;1.10;99.90;;;;;;5104850;28;20016;-68
2024/01/24 03:27:22;;;;;;;15.90;7.22;;;1.40;99.90;;;;;;5105285;28;20047;-68
2024/01/24 03:29:48;;;;;;;10.20;5.60;;;1.50;99.90;;;;;;5105151;28;20016;-68
2024/01/24 03:32:14;;;;;;;13.20;6.80;;;1.60;99.90;;;;;;5105255;28;20201;-68
2024/01/24 03:34:40;;;;;;;18.73;6.18;;;1.60;99.90;;;;;;5103839;28;20051;-67
2024/01/24 03:37:06;;;;;;;16.40;6.97;;;1.80;99.90;;;;;;5103459;28;20027;-67
2024/01/24 03:39:32;;;;;;;16.77;5.80;;;1.80;99.90;;;;;;5103257;28;20028;-67
2024/01/24 03:41:57;;;;;;;11.57;6.10;;;1.80;99.90;;;;;;5103322;28;20099;-68
2024/01/24 03:44:23;;;;;;;13.10;5.40;;;1.90;99.90;;;;;;5103372;28;20055;-68
2024/01/24 03:46:49;;;;;;;10.90;4.95;;;;;;;;;;5103111;28;20032;-68
2024/01/24 03:49:15;;;;;;;14.95;6.43;;;;;;;;;;5101749;28;20020;-68
2024/01/24 03:51:41;;;;;;;17.85;6.97;;;2.10;99.90;;;;;;5102927;28;20027;-68
2024/01/24 03:54:07;;;;;;;14.10;5.93;;;;;;;;;;5102790;28;20028;-68
2024/01/24 03:56:32;;;;;;;12.57;5.72;;;2.30;99.90;;;;;;5103102;28;20023;-68
2024/01/24 03:58:58;;;;;;;8.93;4.43;;;2.00;99.90;;;;;;5103041;28;20357;-69
2024/01/24 04:01:24;;;;;;;9.52;4.32;;;;;;;;;;5102820;28;20354;-67
2024/01/24 04:03:49;;;;;;;14.15;4.60;;;2.50;99.90;;;;;;5102531;28;20028;-65
2024/01/24 04:06:15;;;;;;;12.13;4.30;;;2.50;99.90;;;;;;5102247;28;20027;-68
2024/01/24 04:08:43;;;;;;;11.48;3.45;;;2.60;99.90;;;;;;5102849;28;20016;-68
2024/01/24 04:11:09;;;;;;;9.95;3.88;;;;;;;;;;5102897;28;20035;-67
2024/01/24 04:13:35;;;;;;;13.50;3.67;;;2.80;99.90;;;;;;5102784;28;20126;-67
2024/01/24 04:16:01;;;;;;;8.07;3.80;;;2.80;99.90;;;;;;5102781;28;20356;-68
2024/01/24 04:18:26;;;;;;;7.70;3.55;;;2.90;99.90;;;;;;5102555;28;20019;-67
2024/01/24 04:20:52;;;;;;;12.57;3.70;;;3.00;99.90;;;;;;5102371;28;20094;-68
2024/01/24 04:23:18;;;;;;;17.15;5.30;;;;;;;;;;5102484;28;20035;-68
2024/01/24 04:25:44;;;;;;;13.82;6.13;;;2.90;99.90;;;;;;5102579;28;20069;-70
2024/01/24 04:28:10;;;;;;;8.85;5.10;;;;;;;;;;5102377;28;20032;-67
2024/01/24 04:30:35;;;;;;;10.98;5.47;;;2.70;99.90;;;;;;5102295;28;20047;-68
2024/01/24 04:33:02;;;;;;;16.67;6.30;;;2.70;99.90;;;;;;5102163;28;20372;-67
2024/01/24 04:35:27;;;;;;;18.05;6.50;;;2.80;99.90;;;;;;5102392;28;20024;-68
2024/01/24 04:37:53;;;;;;;11.43;3.97;;;2.70;99.90;;;;;;5102146;28;20027;-69
2024/01/24 04:40:20;;;;;;;10.07;3.75;;;;;;;;;;5102325;28;20111;-68
2024/01/24 04:42:45;;;;;;;11.40;3.63;;;2.80;99.90;;;;;;5102050;28;20028;-68
2024/01/24 04:45:13;;;;;;;7.38;2.95;;;2.90;99.90;;;;;;5101998;28;20024;-68
2024/01/24 04:47:42;;;;;;;9.55;3.03;;;;;;;;;;5101967;28;20078;-68
2024/01/24 04:50:09;;;;;;;8.88;3.83;;;3.20;99.90;;;;;;5102006;28;20016;-67
2024/01/24 04:52:35;;;;;;;7.60;3.70;;;3.10;99.90;;;;;;5100175;28;20032;-66
2024/01/24 04:55:01;;;;;;;11.35;3.13;;;;;;;;;;5094300;28;20222;-67
2024/01/24 04:57:26;;;;;;;5.63;3.10;;;3.10;99.90;;;;;;5098135;28;20021;-69
2024/01/24 04:59:52;;;;;;;10.35;3.53;;;3.10;99.90;;;;;;5081603;28;20058;-68
2024/01/24 05:02:19;;;;;;;9.90;3.38;;;3.20;99.90;;;;;;5081872;28;20024;-71
2024/01/24 05:04:45;;;;;;;5.90;3.28;;;;;;;;;;5081564;28;20046;-67
2024/01/24 05:07:11;;;;;;;9.85;3.55;;;3.30;99.90;;;;;;5081787;28;20028;-67
2024/01/24 05:09:36;;;;;;;7.65;3.17;;;3.30;99.90;;;;;;5081874;28;20036;-71
2024/01/24 05:12:02;;;;;;;9.88;3.30;;;3.20;99.90;;;;;;5081514;28;20047;-70
2024/01/24 05:14:28;;;;;;;15.18;4.35;;;;;;;;;;5081357;28;20073;-68
2024/01/24 05:16:54;;;;;;;6.28;2.40;;;3.20;99.90;;;;;;5081266;28;20084;-69
2024/01/24 05:19:20;;;;;;;6.32;2.63;;;3.10;99.90;;;;;;5081689;28;20017;-72
2024/01/24 05:21:45;;;;;;;9.20;3.28;;;3.20;99.90;;;;;;5079919;28;20032;-69
2024/01/24 05:24:11;;;;;;;13.38;3.20;;;;;;;;;;5081622;28;20422;-70
2024/01/24 05:26:37;;;;;;;7.68;3.28;;;3.20;99.90;;;;;;5080363;28;20021;-69
2024/01/24 05:29:08;;;;;;;6.40;2.45;;;3.30;99.90;;;;;;5081590;28;20021;-70
2024/01/24 05:31:34;;;;;;;10.43;2.42;;;3.10;99.90;;;;;;5081013;28;20044;-69
2024/01/24 05:34:03;;;;;;;8.63;3.25;;;3.20;99.90;;;;;;5081284;28;20091;-70
2024/01/24 05:36:29;;;;;;;9.95;3.05;;;3.40;99.90;;;;;;5081400;28;20055;-68
2024/01/24 05:38:54;;;;;;;10.50;3.47;;;3.30;99.90;;;;;;5081441;28;20048;-68
2024/01/24 05:41:20;;;;;;;6.60;2.83;;;3.30;99.90;;;;;;5081426;28;20323;-68
2024/01/24 05:43:46;;;;;;;7.65;3.03;;;3.20;99.90;;;;;;5081383;28;20309;-70
2024/01/24 05:46:12;;;;;;;10.43;3.42;;;;;;;;;;5081112;28;20097;-69
2024/01/24 05:48:37;;;;;;;12.50;3.80;;;3.70;99.90;;;;;;5081130;28;20350;-70
2024/01/24 05:51:03;;;;;;;10.73;3.55;;;3.40;99.90;;;;;;5080960;28;20107;-70
2024/01/24 05:53:29;;;;;;;7.28;3.40;;;;;;;;;;5081198;28;20021;-69
2024/01/24 05:55:55;;;;;;;7.70;3.60;;;3.70;99.90;;;;;;5080899;28;20311;-70
2024/01/24 05:58:21;;;;;;;10.32;3.55;;;3.50;99.90;;;;;;5080895;28;20017;-69
2024/01/24 06:00:46;;;;;;;8.57;3.33;;;3.70;99.90;;;;;;5080682;28;20055;-68
2024/01/24 06:03:12;;;;;;;12.00;3.75;;;;;;;;;;5080251;28;20032;-69
2024/01/24 06:05:38;;;;;;;7.90;3.92;;;3.60;99.90;;;;;;5079890;28;20366;-70
2024/01/24 06:08:05;;;;;;;7.72;3.13;;;3.60;99.90;;;;;;5080527;28;20028;-69
2024/01/24 06:10:31;;;;;;;7.03;3.78;;;3.60;99.90;;;;;;5079641;28;20096;-68
2024/01/24 06:12:57;;;;;;;7.05;4.53;;;;;;;;;;5081064;28;20028;-70
2024/01/24 06:15:23;;;;;;;13.85;4.65;;;;;;;;;;5081019;28;20029;-70
2024/01/24 06:17:49;;;;;;;9.63;4.18;;;3.70;99.90;;;;;;5080740;28;20219;-71
2024/01/24 06:20:15;;;;;;;10.25;4.30;;;;;;;;;;5080707;28;20092;-72
2024/01/24 06:22:41;;;;;;;9.73;4.38;;;3.60;99.90;;;;;;5080816;28;20027;-70
2024/01/24 06:25:07;;;;;;;10.30;4.88;;;3.70;99.90;;;;;;5080931;28;20017;-70
2024/01/24 06:27:36;;;;;;;9.15;4.53;;;3.10;99.90;;;;;;5081078;28;20036;-71
2024/01/24 06:30:02;;;;;;;7.37;3.97;;;3.90;99.90;;;;;;5084420;28;20303;-71
2024/01/24 06:32:27;;;;;;;9.00;4.60;;;3.70;99.90;;;;;;5084438;28;20350;-70
2024/01/24 06:34:53;;;;;;;10.85;3.92;;;;;;;;;;5084259;28;20047;-71
2024/01/24 06:37:19;;;;;;;9.27;3.70;;;4.00;99.90;;;;;;5084324;28;20064;-68
2024/01/24 06:39:45;;;;;;;12.32;4.78;;;4.00;99.90;;;;;;5084116;28;20024;-72
2024/01/24 06:42:11;;;;;;;10.32;4.57;;;3.90;99.90;;;;;;5077802;28;20040;-69
2024/01/24 06:44:36;;;;;;;11.30;3.55;;;4.00;99.90;;;;;;5065658;28;20029;-69
2024/01/24 06:47:02;;;;;;;7.85;4.45;;;4.00;99.90;;;;;;5068470;28;20024;-68
2024/01/24 06:49:28;;;;;;;9.48;4.95;;;3.80;99.90;;;;;;5084036;28;20058;-70
2024/01/24 06:51:54;;;;;;;10.68;4.63;;;;;;;;;;5083113;28;20024;-68
2024/01/24 06:54:20;;;;;;;8.25;5.07;;;;;;;;;;5083273;28;20336;-67
2024/01/24 06:56:46;;;;;;;11.38;5.90;;;;;;;;;;5076336;28;20048;-67
2024/01/24 06:59:12;;;;;;;7.70;3.95;;;4.10;99.90;;;;;;5070401;28;20320;-67
2024/01/24 07:01:37;;;;;;;11.00;5.00;;;4.20;99.30;;;;;;5063213;28;20041;-68
2024/01/24 07:04:03;;;;;;;12.68;6.30;;;4.20;99.90;;;;;;5063833;28;20033;-70
2024/01/24 07:06:29;;;;;;;11.70;5.53;;;4.20;99.90;;;;;;5063724;28;20186;-67
2024/01/24 07:08:56;;;;;;;19.25;7.13;;;;;;;;;;5063477;28;20087;-67
2024/01/24 07:11:21;;;;;;;15.52;7.47;;;4.10;99.90;;;;;;5063437;28;20361;-69
2024/01/24 07:13:47;;;;;;;16.17;8.23;;;4.10;99.90;;;;;;5063718;28;20013;-70
2024/01/24 07:16:13;;;;;;;15.25;7.57;;;;;;;;;;5062051;28;20017;-69
2024/01/24 07:18:39;;;;;;;17.13;7.38;;;;;;;;;;5068574;28;20094;-72
2024/01/24 07:21:06;;;;;;;11.45;5.95;;;4.30;96.30;;;;;;5081794;28;20033;-69
2024/01/24 07:23:32;;;;;;;11.90;6.20;;;4.20;99.90;;;;;;5082620;28;20267;-69
2024/01/24 07:25:58;;;;;;;12.77;5.53;;;;;;;;;;5083065;28;20347;-69
2024/01/24 07:28:24;;;;;;;11.98;5.47;;;4.30;99.30;;;;;;5073451;28;20334;-70
2024/01/24 07:30:50;;;;;;;7.32;4.68;;;;;;;;;;5062858;28;20076;-71
2024/01/24 07:33:16;;;;;;;10.68;5.20;;;4.10;99.90;;;;;;5066738;28;20035;-70
2024/01/24 07:35:41;;;;;;;12.50;6.88;;;4.20;99.90;;;;;;5083045;28;20024;-69
2024/01/24 07:38:07;;;;;;;19.00;7.15;;;4.10;99.90;;;;;;5082992;28;20031;-71
2024/01/24 07:40:33;;;;;;;17.00;8.10;;;4.00;99.90;;;;;;5081586;28;20021;-67
2024/01/24 07:42:59;;;;;;;12.02;7.22;;;4.20;99.90;;;;;;5083008;28;20016;-68
2024/01/24 07:45:25;;;;;;;20.10;9.10;;;3.90;99.90;;;;;;5082730;28;20224;-68
2024/01/24 07:47:51;;;;;;;27.83;9.80;;;4.00;99.90;;;;;;5082571;28;20062;-68
2024/01/24 07:50:17;;;;;;;34.53;11.82;;;4.00;99.90;;;;;;5082911;28;20020;-68
2024/01/24 07:52:43;;;;;;;21.38;8.55;;;4.00;99.90;;;;;;5082629;28;20032;-68
2024/01/24 07:55:12;;;;;;;36.65;12.65;;;3.90;99.90;;;;;;5082757;28;20134;-68
2024/01/24 07:57:38;;;;;;;43.97;16.90;;;4.10;99.90;;;;;;5079548;28;20029;-66
2024/01/24 08:00:04;;;;;;;27.73;10.90;;;4.10;99.90;;;;;;5062243;28;20085;-66
2024/01/24 08:02:30;;;;;;;30.98;13.63;;;4.20;99.90;;;;;;5062303;28;20385;-67
2024/01/24 08:04:57;;;;;;;22.45;11.02;;;4.00;99.90;;;;;;5062341;28;20319;-68
2024/01/24 08:07:23;;;;;;;25.08;10.30;;;4.10;99.90;;;;;;5062412;28;20016;-68
2024/01/24 08:09:49;;;;;;;26.98;11.43;;;4.10;99.90;;;;;;5062366;28;20080;-69
2024/01/24 08:12:15;;;;;;;18.13;8.15;;;;;;;;;;5062354;28;20024;-70
2024/01/24 08:14:41;;;;;;;19.52;10.77;;;4.10;99.90;;;;;;5062342;28;20032;-70
2024/01/24 08:17:08;;;;;;;13.27;8.20;;;4.10;99.90;;;;;;5062021;28;20088;-71
2024/01/24 08:19:34;;;;;;;16.65;7.28;;;;;;;;;;5062055;28;20021;-70
2024/01/24 08:22:00;;;;;;;14.27;7.38;;;4.10;99.90;;;;;;5061931;28;20418;-70
2024/01/24 08:24:26;;;;;;;13.93;8.70;;;4.00;99.90;;;;;;5062213;28;20025;-71
2024/01/24 08:26:52;;;;;;;18.35;9.07;;;4.10;99.90;;;;;;5062137;28;20204;-71
2024/01/24 08:29:18;;;;;;;15.30;8.73;;;3.60;99.90;;;;;;5061824;28;20083;-70
2024/01/24 08:31:44;;;;;;;18.00;11.20;;;;;;;;;;5061725;28;20049;-72
2024/01/24 08:34:10;;;;;;;18.58;9.80;;;;;;;;;;5062399;28;20220;-73
2024/01/24 08:36:36;;;;;;;18.67;9.10;;;3.90;99.90;;;;;;5081807;28;20046;-70
2024/01/24 08:39:05;;;;;;;18.10;9.02;;;4.00;99.90;;;;;;5081742;28;20036;-71
2024/01/24 08:41:31;;;;;;;;;;;3.90;99.90;;;;;;5082298;28;20040;-68
2024/01/24 08:43:57;;;;;;;12.55;7.60;;;3.30;99.90;;;;;;5081823;28;19908;-68
2024/01/24 08:46:24;;;;;;;13.90;8.98;;;;;;;;;;5081652;28;20316;-68
2024/01/24 08:48:50;;;;;;;17.13;7.93;;;3.80;99.90;;;;;;5081603;28;20020;-69
2024/01/24 08:51:16;;;;;;;11.55;7.40;;;4.10;99.90;;;;;;5081140;28;20028;-69
2024/01/24 08:53:42;;;;;;;11.10;6.65;;;3.90;99.90;;;;;;5081826;28;20181;-69
2024/01/24 08:56:09;;;;;;;13.25;7.97;;;;;;;;;;5081725;28;20369;-70
2024/01/24 08:58:37;;;;;;;13.00;7.20;;;3.80;99.90;;;;;;5081717;28;20080;-70
2024/01/24 09:01:02;;;;;;;13.80;8.32;;;3.80;99.90;;;;;;5075291;28;20040;-67
2024/01/24 09:03:28;;;;;;;17.63;9.02;;;3.70;99.90;;;;;;5069184;28;20267;-68
2024/01/24 09:05:54;;;;;;;16.17;8.93;;;4.00;99.90;;;;;;5061576;28;20331;-67
2024/01/24 09:08:20;;;;;;;15.30;9.13;;;4.00;99.90;;;;;;5061391;28;20219;-67
2024/01/24 09:10:47;;;;;;;15.32;9.60;;;;;;;;;;5061095;28;20214;-68
2024/01/24 09:13:12;;;;;;;18.27;10.82;;;4.00;99.90;;;;;;5061149;28;20021;-67
2024/01/24 09:15:39;;;;;;;16.30;9.40;;;4.20;99.90;;;;;;5061304;28;20048;-68
2024/01/24 09:18:07;;;;;;;15.93;8.55;;;4.00;99.90;;;;;;5061384;28;20067;-67
2024/01/24 09:20:32;;;;;;;15.95;9.48;;;4.30;99.90;;;;;;5061062;28;20293;-67
2024/01/24 09:22:58;;;;;;;20.10;9.98;;;4.20;99.90;;;;;;5059917;28;20285;-68
2024/01/24 09:25:24;;;;;;;15.60;8.85;;;4.30;99.90;;;;;;5061048;28;20098;-67
2024/01/24 09:27:50;;;;;;;12.85;8.27;;;4.10;99.90;;;;;;5061202;28;20013;-65
2024/01/24 09:30:16;;;;;;;14.52;8.00;;;;;;;;;;5060676;28;20466;-66
2024/01/24 09:32:42;;;;;;;21.02;9.60;;;;;;;;;;5061418;28;20276;-67
2024/01/24 09:35:08;;;;;;;19.95;10.30;;;4.00;99.90;;;;;;5060772;28;20322;-67
2024/01/24 09:37:34;;;;;;;14.60;8.90;;;4.30;99.90;;;;;;5061068;28;20025;-65
2024/01/24 09:40:00;;;;;;;13.23;7.65;;;4.10;99.90;;;;;;5060736;28;20062;-68
2024/01/24 09:42:26;;;;;;;17.58;8.07;;;4.30;99.90;;;;;;5060851;28;20084;-66
2024/01/24 09:44:52;;;;;;;11.98;7.10;;;;;;;;;;5061015;28;20059;-67
2024/01/24 09:47:24;;;;;;;12.60;8.68;;;4.20;99.90;;;;;;5060619;28;20017;-67
2024/01/24 09:49:50;;;;;;;14.85;8.60;;;4.10;99.90;;;;;;5060283;28;20049;-68
2024/01/24 09:52:23;;;;;;;14.43;8.75;;;4.50;99.90;;;;;;5059552;28;20213;-68
2024/01/24 09:54:53;;;;;;;17.83;9.52;;;4.40;99.90;;;;;;5060936;28;20020;-67
2024/01/24 09:57:20;;;;;;;12.98;7.85;;;4.50;99.90;;;;;;5060915;28;20103;-66
2024/01/24 09:59:46;;;;;;;12.25;7.78;;;4.50;99.90;;;;;;5060992;28;20017;-66
2024/01/24 10:02:12;;;;;;;10.45;6.72;;;4.80;99.90;;;;;;5060850;28;20044;-67
2024/01/24 10:04:39;;;;;;;12.30;7.28;;;5.00;99.90;;;;;;5064612;28;20032;-67
2024/01/24 10:07:08;;;;;;;10.27;5.40;;;4.70;99.90;;;;;;5064466;28;20044;-66
2024/01/24 10:09:34;;;;;;;13.13;7.22;;;4.80;99.90;;;;;;5064753;28;20021;-67
2024/01/24 10:11:59;;;;;;;16.65;8.38;;;4.90;99.90;;;;;;5064604;28;20193;-66
2024/01/24 10:14:25;;;;;;;18.23;10.18;;;4.90;99.90;;;;;;5064403;28;20017;-67
2024/01/24 10:16:51;;;;;;;9.32;6.60;;;4.70;99.90;;;;;;5064467;28;20087;-66
2024/01/24 10:19:23;;;;;;;14.02;6.90;;;5.00;99.90;;;;;;5064674;28;20021;-66
2024/01/24 10:21:49;;;;;;;7.93;4.85;;;;;;;;;;5064407;28;20041;-66
2024/01/24 10:24:15;;;;;;;9.13;6.13;;;5.00;99.90;;;;;;5064402;28;20323;-66
2024/01/24 10:26:41;;;;;;;13.73;7.38;;;4.90;99.90;;;;;;5064187;28;20021;-65
2024/01/24 10:29:07;;;;;;;11.82;6.55;;;5.00;99.90;;;;;;5064201;28;20076;-66
2024/01/24 10:31:33;;;;;;;11.32;7.05;;;5.00;99.90;;;;;;5073018;28;20154;-65
2024/01/24 10:33:59;;;;;;;11.98;7.10;;;;;;;;;;5082680;28;20033;-65
2024/01/24 10:36:27;;;;;;;12.23;7.25;;;4.90;99.90;;;;;;5083856;28;20036;-65
2024/01/24 10:38:58;;;;;;;14.77;7.88;;;5.30;99.90;;;;;;5084019;28;20020;-65
2024/01/24 10:41:25;;;;;;;13.43;7.47;;;;;;;;;;5084282;28;20040;-65
2024/01/24 10:43:56;;;;;;;12.93;6.97;;;4.90;99.90;;;;;;5083918;28;20094;-66
2024/01/24 10:46:22;;;;;;;11.43;6.07;;;5.10;99.90;;;;;;5084360;28;20065;-64
2024/01/24 10:48:50;;;;;;;10.13;6.28;;;4.60;99.90;;;;;;5084140;28;20013;-65
2024/01/24 10:51:18;;;;;;;9.80;5.93;;;4.80;99.90;;;;;;5083843;28;20024;-65
2024/01/24 10:53:45;;;;;;;9.40;5.35;;;5.30;99.90;;;;;;5083741;28;20016;-66
2024/01/24 10:56:15;;;;;;;8.63;5.68;;;4.70;99.90;;;;;;5082702;28;20079;-67
2024/01/24 10:58:42;;;;;;;10.07;5.90;;;4.70;99.90;;;;;;5084156;28;20020;-68
2024/01/24 11:01:08;;;;;;;10.70;6.30;;;4.80;99.90;;;;;;5082780;28;20077;-68
2024/01/24 11:03:34;;;;;;;9.80;5.97;;;5.00;99.90;;;;;;5083327;28;20013;-67
2024/01/24 11:06:03;;;;;;;7.82;5.35;;;4.80;99.90;;;;;;5083653;28;20021;-68
2024/01/24 11:08:44;;;;;;;12.25;6.00;;;4.80;97.10;;;;;;5083498;28;20269;-67
2024/01/24 11:11:13;;;;;;;11.68;5.85;;;4.80;99.90;;;;;;5083702;28;20103;-66
2024/01/24 11:13:40;;;;;;;9.63;5.80;;;4.90;99.90;;;;;;5082919;28;20037;-67
2024/01/24 11:16:28;;;;;;;9.82;5.78;;;4.90;99.90;;;;;;5083571;28;20093;-67
2024/01/24 11:18:59;;;;;;;8.80;5.30;;;4.90;96.80;;;;;;5062157;28;20092;-67
2024/01/24 11:21:28;;;;;;;10.27;5.75;;;5.00;96.40;;;;;;5063091;28;20051;-66
2024/01/24 11:23:53;;;;;;;8.27;4.97;;;5.00;99.90;;;;;;5063064;28;20029;-67
2024/01/24 11:26:19;;;;;;;9.38;4.57;;;5.10;99.90;;;;;;5063336;28;20031;-68
2024/01/24 11:28:46;;;;;;;9.80;6.25;;;5.00;95.40;;;;;;5063191;28;20299;-66
2024/01/24 11:31:13;;;;;;;10.95;4.90;;;5.10;99.90;;;;;;5062841;28;20398;-68
2024/01/24 11:34:14;;;;;;;12.45;5.63;;;4.70;99.90;;;;;;5063018;28;20059;-67
2024/01/24 11:36:43;;;;;;;10.45;5.40;;;5.10;94.70;;;;;;5063065;28;20025;-68
2024/01/24 11:39:41;;;;;;;10.80;4.45;;;5.00;99.90;;;;;;5062952;28;20025;-68
2024/01/24 11:42:28;;;;;;;7.70;5.32;;;5.00;99.90;;;;;;5029489;28;20228;-66
2024/01/24 11:45:11;;;;;;;10.35;4.88;;;5.20;97.10;;;;;;5062789;28;20354;-67
2024/01/24 11:47:38;;;;;;;7.85;5.00;;;5.10;99.90;;;;;;5062694;28;20382;-67
2024/01/24 11:50:05;;;;;;;9.98;4.80;;;;;;;;;;5062721;28;20028;-67
2024/01/24 11:52:31;;;;;;;7.95;4.50;;;;;;;;;;5073995;28;20032;-67
2024/01/24 11:54:56;;;;;;;10.63;6.22;;;5.60;99.90;;;;;;5082619;28;20119;-67
2024/01/24 11:57:22;;;;;;;7.60;4.45;;;5.20;99.90;;;;;;5082559;28;20021;-67
2024/01/24 11:59:48;;;;;;;6.97;5.13;;;;;;;;;;5082714;28;20303;-67
2024/01/24 12:02:14;;;;;;;7.10;4.78;;;5.20;99.90;;;;;;5082566;28;20032;-67
2024/01/24 12:04:40;;;;;;;8.30;4.72;;;5.10;99.90;;;;;;5082647;28;20017;-67
2024/01/24 12:07:07;;;;;;;10.60;5.32;;;5.20;94.00;;;;;;5082769;28;20024;-67
2024/01/24 12:09:33;;;;;;;7.90;4.18;;;5.10;99.90;;;;;;5082727;28;20075;-67
2024/01/24 12:11:59;;;;;;;12.05;4.55;;;5.10;99.90;;;;;;5082751;28;20295;-66
2024/01/24 12:14:25;;;;;;;12.73;5.13;;;5.30;99.90;;;;;;5082530;28;20083;-68
2024/01/24 12:16:51;;;;;;;7.70;4.70;;;;;;;;;;5082632;28;20354;-67
2024/01/24 12:19:18;;;;;;;7.95;4.70;;;5.30;99.90;;;;;;5082663;28;20024;-67
2024/01/24 12:21:44;;;;;;;10.52;4.85;;;5.30;98.60;;;;;;5081951;28;20115;-66
2024/01/24 12:24:10;;;;;;;8.95;4.95;;;5.30;99.90;;;;;;5082305;28;20012;-66
2024/01/24 12:26:36;;;;;;;9.73;5.10;;;5.30;99.90;;;;;;5081612;28;20236;-66
2024/01/24 12:29:03;;;;;;;8.68;5.32;;;5.40;99.90;;;;;;5081868;28;20373;-67
2024/01/24 12:31:29;;;;;;;11.18;4.90;;;5.20;99.90;;;;;;5081739;28;20106;-67
2024/01/24 12:33:58;;;;;;;7.50;5.13;;;5.30;99.90;;;;;;5082080;28;20032;-67
2024/01/24 12:36:24;;;;;;;9.68;5.45;;;5.30;99.90;;;;;;5080599;28;20066;-66
2024/01/24 12:38:54;;;;;;;10.70;5.45;;;5.30;99.90;;;;;;5081720;28;20083;-67
2024/01/24 12:41:20;;;;;;;11.52;5.72;;;5.30;99.90;;;;;;5081627;28;20100;-67
2024/01/24 12:43:46;;;;;;;13.75;5.20;;;5.60;99.90;;;;;;5081704;28;20016;-67
2024/01/24 12:46:12;;;;;;;9.80;5.43;;;5.40;94.80;;;;;;5080603;28;20078;-67
2024/01/24 12:48:38;;;;;;;9.23;4.82;;;5.40;98.20;;;;;;5081567;28;20036;-67
2024/01/24 12:51:04;;;;;;;7.50;4.97;;;5.50;99.90;;;;;;5081837;28;20020;-67
2024/01/24 12:53:32;;;;;;;11.18;5.28;;;5.50;99.90;;;;;;5081564;28;20016;-67
2024/01/24 12:55:58;;;;;;;8.93;4.70;;;5.30;96.60;;;;;;5081523;28;20331;-67
2024/01/24 12:58:24;;;;;;;11.52;5.88;;;5.60;99.90;;;;;;5081535;28;20025;-67
2024/01/24 13:00:49;;;;;;;14.57;7.65;;;5.50;99.60;;;;;;5080218;28;20037;-66